Time;durP1;ratioP1;P1;durP2;ratioP2;P2;SDS_P1;SDS_P2;PMS_P1;PMS_P2;Temp;Humidity;BMP_temperature;BMP_pressure;BME280_temperature;BME280_humidity;BME280_pressure;Samples;Min_cycle;Max_cycle;Signal;HPM_P1;HPM_P2
2021/01/02 00:02:03;;;;;;;27.92;15.32;;;;;;;5.01;65.74;99803.00;4355262;32;33292;-81
2021/01/02 00:05:00;;;;;;;29.40;15.70;;;;;;;5.01;65.93;99805.63;4360425;32;33565;-81
2021/01/02 00:07:57;;;;;;;30.95;15.48;;;;;;;4.91;65.92;99804.94;4350357;32;33374;-82
2021/01/02 00:10:51;;;;;;;36.47;16.90;;;;;;;4.73;66.30;99803.56;4376490;32;34043;-82
2021/01/02 00:13:36;;;;;;;31.62;17.27;;;;;;;4.85;65.97;99807.69;4315374;33;34486;-83
2021/01/02 00:16:39;;;;;;;31.90;16.90;;;;;;;4.54;66.99;99810.91;4315698;33;34768;-82
2021/01/02 00:19:19;;;;;;;30.62;16.87;;;;;;;4.57;67.15;99823.06;4308547;33;32919;-82
2021/01/02 00:22:09;;;;;;;36.63;18.37;;;;;;;4.74;66.82;99815.75;4331382;33;33196;-82
2021/01/02 00:24:45;;;;;;;47.90;20.50;;;;;;;4.88;66.10;99815.47;4308359;33;33764;-82
2021/01/02 00:27:29;;;;;;;37.35;18.83;;;;;;;4.70;65.83;99826.28;4332005;33;33473;-82
2021/01/02 00:30:04;;;;;;;36.88;19.52;;;;;;;4.46;65.81;99828.47;4317853;33;33171;-82
2021/01/02 00:33:00;;;;;;;29.92;17.65;;;;;;;4.17;67.16;99826.37;4308152;33;31533;-82
2021/01/02 00:35:29;;;;;;;29.35;15.05;;;;;;;4.26;67.12;99823.59;4335607;33;33120;-83
2021/01/02 00:38:04;;;;;;;31.20;18.23;;;;;;;4.26;67.13;99826.22;4333727;33;34047;-82
2021/01/02 00:40:35;;;;;;;29.45;16.73;;;;;;;4.47;66.46;99830.22;4316212;33;34019;-82
2021/01/02 00:43:04;;;;;;;37.30;16.75;;;;;;;4.55;65.61;99833.53;4310096;33;32684;-82
2021/01/02 00:45:33;;;;;;;31.23;16.20;;;;;;;4.31;66.22;99834.84;4320552;33;35263;-82
2021/01/02 00:48:03;;;;;;;34.65;16.37;;;;;;;4.46;65.92;99830.22;4316609;33;34265;-82
2021/01/02 00:50:32;;;;;;;32.30;16.65;;;;;;;4.50;65.78;99831.91;4335781;32;34447;-82
2021/01/02 00:53:22;;;;;;;30.52;17.00;;;;;;;4.34;65.89;99829.56;4363455;32;34168;-82
2021/01/02 00:56:06;;;;;;;29.05;15.07;;;;;;;4.07;66.27;99840.50;4353146;32;34464;-83
2021/01/02 00:59:12;;;;;;;25.33;13.98;;;;;;;4.46;65.23;99840.69;4357445;32;33884;-82
2021/01/02 01:01:45;;;;;;;26.08;13.35;;;;;;;4.16;65.95;99845.56;4374306;32;33686;-82
2021/01/02 01:04:42;;;;;;;25.25;12.35;;;;;;;4.27;66.12;99848.00;4344837;32;34078;-82
2021/01/02 01:07:16;;;;;;;22.98;12.50;;;;;;;3.90;67.11;99859.06;4343974;32;34591;-81
2021/01/02 01:09:50;;;;;;;21.98;12.63;;;;;;;4.14;66.47;99857.81;4357162;32;33411;-82
2021/01/02 01:12:18;;;;;;;25.23;13.77;;;;;;;4.11;66.17;99865.69;4355494;32;34625;-82
2021/01/02 01:14:46;;;;;;;24.87;14.52;;;;;;;3.81;67.77;99857.47;4359562;32;33854;-82
2021/01/02 01:17:19;;;;;;;30.15;16.75;;;;;;;4.06;66.59;99851.84;4369298;32;32905;-82
2021/01/02 01:19:52;;;;;;;27.30;15.18;;;;;;;3.51;68.38;99858.78;4375254;32;34846;-82
2021/01/02 01:22:25;;;;;;;39.90;19.10;;;;;;;3.67;68.78;99859.41;4368213;32;34532;-82
2021/01/02 01:25:06;;;;;;;40.08;20.25;;;;;;;4.24;66.09;99848.06;4373447;32;33907;-82
2021/01/02 01:27:55;;;;;;;31.83;16.77;;;;;;;3.75;67.37;99849.72;4367968;32;34431;-82
2021/01/02 01:30:23;;;;;;;27.52;13.82;;;;;;;3.39;68.75;99858.94;4369394;32;33560;-82
2021/01/02 01:33:02;;;;;;;28.70;16.27;;;;;;;3.78;67.96;99848.81;4377104;32;33690;-82
2021/01/02 01:35:31;;;;;;;27.50;14.57;;;;;;;3.94;67.23;99852.91;4371098;32;34850;-82
2021/01/02 01:37:58;;;;;;;29.77;14.75;;;;;;;3.82;67.25;99856.56;4361067;32;33750;-82
2021/01/02 01:40:30;;;;;;;28.02;15.27;;;;;;;3.79;67.15;99861.81;4354593;32;34638;-82
2021/01/02 01:43:06;;;;;;;28.58;14.50;;;;;;;3.69;67.32;99854.16;4356451;32;34684;-82
2021/01/02 01:45:39;;;;;;;29.60;15.68;;;;;;;3.62;67.71;99858.63;4369048;32;33431;-81
2021/01/02 01:48:09;;;;;;;29.55;15.95;;;;;;;3.58;67.77;99863.03;4387115;32;33653;-82
2021/01/02 01:51:02;;;;;;;25.58;15.07;;;;;;;3.64;67.74;99859.44;4372278;32;33731;-81
2021/01/02 01:54:23;;;;;;;30.88;16.87;;;;;;;3.72;68.00;99857.59;4378850;32;34380;-82
2021/01/02 01:56:51;;;;;;;30.75;16.45;;;;;;;3.82;67.16;99866.16;4339726;33;34315;-81
2021/01/02 01:59:23;;;;;;;34.13;18.02;;;;;;;3.56;67.73;99867.41;4330949;33;33561;-82
2021/01/02 02:01:52;;;;;;;31.65;17.27;;;;;;;3.47;68.62;99866.69;4343176;33;33546;-82
2021/01/02 02:04:48;;;;;;;28.00;16.35;;;;;;;3.65;68.00;99868.16;4339664;33;33054;-82
2021/01/02 02:07:17;;;;;;;25.75;15.77;;;;;;;3.79;67.30;99855.75;4331857;33;34238;-82
2021/01/02 02:09:57;;;;;;;35.08;15.80;;;;;;;3.52;68.41;99862.25;4336196;33;34438;-82
2021/01/02 02:12:32;;;;;;;28.52;15.82;;;;;;;3.40;69.25;99863.28;4330717;33;32888;-82
2021/01/02 02:14:59;;;;;;;32.15;16.67;;;;;;;3.41;69.85;99861.53;4334938;33;34133;-81
2021/01/02 02:17:38;;;;;;;24.25;13.45;;;;;;;3.58;68.82;99868.25;4342419;33;33393;-81
2021/01/02 02:20:10;;;;;;;25.37;15.95;;;;;;;3.91;67.96;99859.94;4325961;33;33332;-81
2021/01/02 02:22:39;;;;;;;28.90;14.95;;;;;;;3.91;67.93;99857.31;4322557;33;34987;-82
2021/01/02 02:25:17;;;;;;;23.67;13.80;;;;;;;3.53;69.13;99866.59;4324831;33;34623;-82
2021/01/02 02:27:46;;;;;;;29.05;16.02;;;;;;;3.47;69.54;99864.06;4315840;33;31709;-82
2021/01/02 02:30:27;;;;;;;24.98;13.48;;;;;;;3.60;69.37;99855.16;4341699;32;34580;-82
2021/01/02 02:32:54;;;;;;;26.15;14.77;;;;;;;3.74;68.57;99849.72;4366862;32;33694;-82
2021/01/02 02:35:21;;;;;;;24.80;14.10;;;;;;;3.67;68.45;99848.97;4366426;32;34899;-82
2021/01/02 02:37:51;;;;;;;22.55;14.20;;;;;;;3.72;68.29;99846.28;4357978;32;33096;-83
2021/01/02 02:40:20;;;;;;;24.37;13.05;;;;;;;3.83;68.17;99842.63;4354898;32;33730;-82
2021/01/02 02:42:59;;;;;;;23.08;12.65;;;;;;;3.60;68.99;99839.50;4358646;32;34598;-82
2021/01/02 02:45:29;;;;;;;23.62;13.75;;;;;;;3.69;68.59;99844.56;4373270;32;33663;-82
2021/01/02 02:48:02;;;;;;;22.35;12.93;;;;;;;3.65;68.54;99834.19;4371846;32;33019;-82
2021/01/02 02:50:31;;;;;;;27.40;13.13;;;;;;;3.54;68.83;99844.81;4368507;32;33635;-82
2021/01/02 02:53:06;;;;;;;21.45;13.13;;;;;;;3.57;68.89;99836.94;4375104;32;33989;-82
2021/01/02 02:55:37;;;;;;;25.50;13.65;;;;;;;3.76;68.37;99840.16;4362484;32;35821;-82
2021/01/02 02:58:06;;;;;;;26.73;13.73;;;;;;;3.82;67.71;99848.72;4373033;32;33315;-82
2021/01/02 03:00:34;;;;;;;23.08;13.43;;;;;;;3.42;68.73;99850.19;4358924;32;34323;-82
2021/01/02 03:03:03;;;;;;;23.90;12.98;;;;;;;3.49;68.20;99841.41;4357182;32;34393;-82
2021/01/02 03:05:30;;;;;;;26.52;15.18;;;;;;;3.42;68.52;99850.19;4358454;32;32748;-82
2021/01/02 03:07:58;;;;;;;27.40;15.13;;;;;;;2.80;71.95;99855.31;4374039;32;34536;-82
2021/01/02 03:10:26;;;;;;;27.27;14.45;;;;;;;3.38;70.65;99854.63;4366628;32;34491;-81
2021/01/02 03:12:53;;;;;;;33.22;16.80;;;;;;;3.51;70.55;99856.19;4369250;32;33908;-82
2021/01/02 03:15:23;;;;;;;31.48;16.12;;;;;;;3.83;70.13;99847.84;4371292;32;34812;-82
2021/01/02 03:17:50;;;;;;;30.67;16.85;;;;;;;3.72;71.94;99841.94;4373681;32;33338;-82
2021/01/02 03:20:18;;;;;;;32.15;17.45;;;;;;;3.98;71.07;99851.09;4368919;32;33359;-81
2021/01/02 03:22:48;;;;;;;36.58;18.85;;;;;;;3.90;71.91;99851.25;4368029;32;201051;-82
2021/01/02 03:25:17;;;;;;;29.00;16.98;;;;;;;4.19;71.24;99861.22;4361485;32;34751;-82
2021/01/02 03:27:44;;;;;;;31.50;18.70;;;;;;;4.28;70.65;99858.44;4357853;32;35377;-81
2021/01/02 03:30:14;;;;;;;30.90;17.55;;;;;;;4.22;71.25;99855.91;4360331;32;34573;-81
2021/01/02 03:32:41;;;;;;;33.20;18.05;;;;;;;4.33;70.87;99856.59;4371689;32;32369;-82
2021/01/02 03:35:11;;;;;;;32.92;18.77;;;;;;;4.55;70.73;99858.81;4359791;32;34821;-82
2021/01/02 03:37:40;;;;;;;31.50;18.58;;;;;;;4.62;69.92;99855.22;4369151;32;32909;-81
2021/01/02 03:40:09;;;;;;;31.50;18.65;;;;;;;4.82;69.50;99855.69;4372245;32;33631;-82
2021/01/02 03:42:40;;;;;;;33.58;18.75;;;;;;;4.55;69.97;99850.97;4370313;32;33438;-82
2021/01/02 03:45:10;;;;;;;30.88;16.98;;;;;;;4.36;69.60;99848.69;4359014;32;34029;-82
2021/01/02 03:47:38;;;;;;;31.98;18.23;;;;;;;4.44;69.25;99853.81;4369377;32;33208;-81
2021/01/02 03:50:06;;;;;;;30.42;17.33;;;;;;;4.85;68.61;99850.41;4361864;32;34259;-81
2021/01/02 03:52:38;;;;;;;31.90;18.90;;;;;;;4.78;68.77;99854.03;4369489;32;34536;-81
2021/01/02 03:55:07;;;;;;;31.50;18.73;;;;;;;4.93;68.29;99854.63;4359751;32;34461;-82
2021/01/02 03:57:35;;;;;;;33.13;18.70;;;;;;;4.86;68.46;99852.12;4369291;32;33183;-82
2021/01/02 04:00:06;;;;;;;30.92;17.95;;;;;;;4.92;68.46;99855.53;4362144;32;33309;-81
2021/01/02 04:02:34;;;;;;;28.67;17.27;;;;;;;4.57;69.00;99860.53;4367117;32;34556;-81
2021/01/02 04:05:06;;;;;;;37.33;18.37;;;;;;;4.68;68.37;99869.94;4373658;32;33838;-81
2021/01/02 04:07:33;;;;;;;29.73;17.17;;;;;;;4.57;69.09;99863.16;4348121;32;32802;-81
2021/01/02 04:10:03;;;;;;;33.92;17.20;;;;;;;4.51;69.50;99865.00;4357647;32;33611;-81
2021/01/02 04:12:30;;;;;;;30.60;18.30;;;;;;;4.92;67.99;99858.13;4359073;32;33809;-81
2021/01/02 04:14:57;;;;;;;31.08;17.92;;;;;;;4.92;68.31;99852.91;4346197;32;35002;-81
2021/01/02 04:17:25;;;;;;;36.80;18.83;;;;;;;5.00;68.44;99837.91;4370196;32;32126;-81
2021/01/02 04:19:53;;;;;;;33.50;19.12;;;;;;;4.86;68.97;99848.66;4362316;32;33345;-82
2021/01/02 04:22:20;;;;;;;35.78;18.70;;;;;;;4.83;69.13;99839.09;4370427;32;33145;-82
2021/01/02 04:24:48;;;;;;;29.75;16.90;;;;;;;4.89;68.97;99848.59;4363182;32;35471;-82
2021/01/02 04:27:15;;;;;;;32.35;18.20;;;;;;;4.90;68.95;99839.00;4360259;32;34353;-82
2021/01/02 04:29:43;;;;;;;30.10;17.58;;;;;;;4.84;68.80;99846.09;4370480;32;33701;-82
2021/01/02 04:32:10;;;;;;;30.80;16.95;;;;;;;4.95;68.39;99838.00;4351798;32;33728;-81
2021/01/02 04:34:37;;;;;;;33.08;17.58;;;;;;;5.07;68.36;99842.13;4369846;32;33602;-82
2021/01/02 04:37:05;;;;;;;33.17;17.60;;;;;;;5.08;68.05;99838.59;4355138;32;33325;-81
2021/01/02 04:39:32;;;;;;;34.67;18.65;;;;;;;4.97;68.02;99840.59;4370220;32;34395;-81
2021/01/02 04:41:59;;;;;;;33.90;18.70;;;;;;;5.12;67.68;99840.25;4354213;32;33264;-81
2021/01/02 04:44:27;;;;;;;31.45;16.95;;;;;;;4.93;67.56;99839.78;4353997;32;34870;-82
2021/01/02 04:46:55;;;;;;;31.95;18.50;;;;;;;4.69;68.39;99846.34;4369142;32;33876;-81
2021/01/02 04:49:23;;;;;;;32.83;17.87;;;;;;;4.84;68.38;99832.09;4352326;32;33333;-81
2021/01/02 04:51:58;;;;;;;32.75;18.00;;;;;;;4.61;69.02;99837.81;4356066;32;33187;-81
2021/01/02 04:54:26;;;;;;;32.10;17.90;;;;;;;4.97;68.36;99837.97;4343850;32;34540;-81
2021/01/02 04:56:53;;;;;;;36.25;18.50;;;;;;;4.97;68.20;99840.59;4353396;32;33133;-81
2021/01/02 04:59:25;;;;;;;31.62;18.25;;;;;;;4.71;69.57;99851.56;4354598;32;34355;-81
2021/01/02 05:01:54;;;;;;;31.90;18.25;;;;;;;4.57;69.97;99854.44;4333305;33;32253;-81
2021/01/02 05:04:22;;;;;;;32.42;17.83;;;;;;;4.84;69.17;99858.28;4347400;32;34034;-82
2021/01/02 05:06:49;;;;;;;29.73;16.10;;;;;;;5.11;68.59;99851.63;4362434;32;33521;-82
2021/01/02 05:09:16;;;;;;;29.65;16.55;;;;;;;5.39;67.48;99850.16;4360270;32;33614;-81
2021/01/02 05:11:44;;;;;;;33.53;18.67;;;;;;;5.38;67.20;99852.81;4362179;32;33274;-81
2021/01/02 05:14:12;;;;;;;33.28;18.17;;;;;;;5.08;68.69;99854.31;4362471;32;33482;-81
2021/01/02 05:16:41;;;;;;;31.23;17.85;;;;;;;5.01;69.26;99857.97;4347800;32;34229;-82
2021/01/02 05:19:13;;;;;;;31.58;18.92;;;;;;;5.11;68.90;99849.03;4351735;32;33652;-81
2021/01/02 05:21:45;;;;;;;32.33;16.85;;;;;;;5.17;68.61;99846.25;4351926;32;34744;-82
2021/01/02 05:24:12;;;;;;;;;;;;;;;5.06;68.76;99840.41;4351928;32;35106;-81
2021/01/02 05:27:01;;;;;;;27.25;16.65;;;;;;;5.45;67.50;99849.16;4377415;32;33086;-81
2021/01/02 05:29:30;;;;;;;33.25;16.52;;;;;;;5.34;67.77;99862.50;4362068;32;34503;-81
2021/01/02 05:32:02;;;;;;;28.85;16.70;;;;;;;5.38;67.82;99865.91;4359181;32;34394;-82
2021/01/02 05:34:31;;;;;;;35.65;17.20;;;;;;;5.29;67.87;99866.97;4353810;32;33702;-81
2021/01/02 05:37:08;;;;;;;31.73;17.27;;;;;;;5.31;68.16;99873.00;4361158;32;33974;-82
2021/01/02 05:39:52;;;;;;;28.52;16.45;;;;;;;4.98;69.18;99876.31;4364170;32;34486;-81
2021/01/02 05:42:20;;;;;;;27.00;16.08;;;;;;;5.42;67.68;99869.34;4352500;32;33688;-81
2021/01/02 05:44:49;;;;;;;29.83;16.60;;;;;;;5.33;67.90;99870.38;4352774;32;33370;-81
2021/01/02 05:47:20;;;;;;;26.33;14.48;;;;;;;5.18;68.26;99892.50;4351405;32;33499;-81
2021/01/02 05:49:50;;;;;;;29.02;16.15;;;;;;;5.30;67.66;99897.47;4347106;32;33723;-82
2021/01/02 05:52:17;;;;;;;29.23;15.43;;;;;;;5.05;68.77;99901.50;4363504;32;33561;-81
2021/01/02 05:54:47;;;;;;;29.73;16.52;;;;;;;5.31;67.99;99903.56;4368402;32;34452;-82
2021/01/02 05:57:27;;;;;;;29.27;16.60;;;;;;;5.58;66.65;99905.62;4359759;32;34139;-82
2021/01/02 05:59:56;;;;;;;26.45;15.80;;;;;;;5.07;68.68;99904.94;4349111;32;34688;-82
2021/01/02 06:02:30;;;;;;;29.55;16.30;;;;;;;5.06;68.55;99897.97;4360695;32;33807;-82
2021/01/02 06:05:04;;;;;;;27.17;14.98;;;;;;;4.97;69.10;99903.38;4359446;32;34589;-82
2021/01/02 06:07:36;;;;;;;30.90;16.27;;;;;;;4.94;69.28;99908.66;4364589;32;33694;-82
2021/01/02 06:10:09;;;;;;;25.70;15.20;;;;;;;4.88;69.00;99910.50;4350909;32;33673;-82
2021/01/02 06:12:39;;;;;;;29.12;15.70;;;;;;;4.35;70.92;99911.47;4358042;32;33684;-82
2021/01/02 06:15:08;;;;;;;28.73;16.65;;;;;;;5.02;68.75;99912.00;4337452;32;96513;-82
2021/01/02 06:17:41;;;;;;;30.77;16.98;;;;;;;4.43;70.56;99921.81;4349879;32;33217;-82
2021/01/02 06:20:26;;;;;;;30.23;16.30;;;;;;;4.49;70.74;99913.84;4352734;32;33618;-82
2021/01/02 06:22:53;;;;;;;30.50;17.37;;;;;;;4.60;70.08;99909.28;4352283;32;34528;-82
2021/01/02 06:25:22;;;;;;;27.00;16.40;;;;;;;4.86;69.24;99917.53;4364916;32;33636;-82
2021/01/02 06:27:50;;;;;;;27.87;16.30;;;;;;;4.92;68.89;99926.16;4340455;32;34189;-82
2021/01/02 06:30:18;;;;;;;31.30;15.57;;;;;;;4.59;69.71;99923.25;4355002;32;35549;-81
2021/01/02 06:32:46;;;;;;;25.17;15.48;;;;;;;4.71;69.44;99923.06;4358385;32;34599;-82
2021/01/02 06:35:20;;;;;;;30.48;17.17;;;;;;;4.62;69.74;99918.00;4353259;32;33806;-81
2021/01/02 06:37:47;;;;;;;28.25;14.45;;;;;;;4.97;68.40;99914.72;4362957;32;33166;-82
2021/01/02 06:40:30;;;;;;;28.83;16.62;;;;;;;4.73;69.33;99920.41;4362340;32;34481;-81
2021/01/02 06:42:59;;;;;;;24.33;14.70;;;;;;;4.43;70.43;99911.34;4350773;32;33816;-82
2021/01/02 06:45:36;;;;;;;25.10;15.43;;;;;;;4.45;70.46;99920.03;4337015;32;34221;-81
2021/01/02 06:48:13;;;;;;;26.92;16.00;;;;;;;4.71;69.26;99914.34;4360882;32;34638;-82
2021/01/02 06:50:40;;;;;;;31.85;16.73;;;;;;;4.64;69.63;99916.19;4358235;32;36190;-81
2021/01/02 06:53:23;;;;;;;31.73;17.27;;;;;;;4.39;70.36;99910.53;4349534;32;35675;-81
2021/01/02 06:56:09;;;;;;;25.50;15.27;;;;;;;4.42;70.27;99905.25;4345497;32;31532;-82
2021/01/02 06:58:38;;;;;;;27.45;16.23;;;;;;;4.47;69.91;99913.88;4347222;32;34591;-81
2021/01/02 07:01:07;;;;;;;27.50;15.07;;;;;;;4.34;70.49;99921.06;4350059;32;33743;-81
2021/01/02 07:03:48;;;;;;;27.55;15.90;;;;;;;4.63;69.36;99927.56;4354578;32;33896;-81
2021/01/02 07:06:20;;;;;;;28.38;15.35;;;;;;;4.44;69.87;99923.53;4363184;32;34550;-82
2021/01/02 07:08:54;;;;;;;32.08;15.52;;;;;;;4.92;68.35;99923.56;4363712;32;32745;-81
2021/01/02 07:11:43;;;;;;;25.60;14.45;;;;;;;4.84;68.20;99928.91;4354599;32;32516;-81
2021/01/02 07:14:14;;;;;;;25.58;13.27;;;;;;;4.92;67.88;99923.56;4358817;32;34817;-82
2021/01/02 07:16:51;;;;;;;22.00;13.57;;;;;;;4.50;69.50;99923.41;4369658;32;33712;-81
2021/01/02 07:19:31;;;;;;;21.67;13.95;;;;;;;4.63;69.09;99930.16;4372137;32;33240;-81
2021/01/02 07:22:17;;;;;;;21.42;12.75;;;;;;;4.38;70.17;99932.34;4369524;32;34584;-81
2021/01/02 07:24:46;;;;;;;29.23;14.07;;;;;;;4.64;69.12;99942.34;4372441;32;33807;-82
2021/01/02 07:27:23;;;;;;;22.90;12.82;;;;;;;4.52;69.76;99955.66;4376658;32;34586;-82
2021/01/02 07:29:54;;;;;;;26.40;14.27;;;;;;;4.23;70.72;99961.34;4356476;32;34317;-82
2021/01/02 07:32:26;;;;;;;;;;;;;;;4.51;69.92;99941.72;4349777;32;33586;-82
2021/01/02 07:34:55;;;;;;;29.90;15.00;;;;;;;4.75;69.05;99944.81;4351344;32;34956;-82
2021/01/02 07:37:24;;;;;;;22.20;12.65;;;;;;;5.07;67.78;99949.41;4355598;32;33886;-81
2021/01/02 07:40:05;;;;;;;21.80;13.43;;;;;;;5.16;67.28;99962.34;4358988;32;33485;-81
2021/01/02 07:42:35;;;;;;;21.35;12.80;;;;;;;5.26;67.06;99963.03;4357793;32;33594;-81
2021/01/02 07:45:02;;;;;;;23.65;14.23;;;;;;;4.76;68.66;99964.84;4353342;32;34341;-81
2021/01/02 07:47:29;;;;;;;23.33;14.38;;;;;;;4.90;68.12;99975.91;4350100;32;34078;-82
2021/01/02 07:50:11;;;;;;;24.70;14.15;;;;;;;5.05;68.10;99980.88;4355553;32;32922;-81
2021/01/02 07:52:56;;;;;;;26.92;14.65;;;;;;;4.83;69.09;99983.00;4363133;32;33687;-81
2021/01/02 07:55:26;;;;;;;20.80;12.13;;;;;;;5.29;67.44;99976.91;4357809;32;34646;-81
2021/01/02 07:57:54;;;;;;;21.83;12.73;;;;;;;5.53;66.05;99972.09;4359833;32;35569;-81
2021/01/02 08:00:23;;;;;;;21.10;13.10;;;;;;;5.19;67.32;99978.00;4362512;32;32879;-81
2021/01/02 08:02:51;;;;;;;25.05;13.85;;;;;;;5.03;67.90;99977.44;4352407;32;33251;-82
2021/01/02 08:05:23;;;;;;;25.40;13.88;;;;;;;4.77;69.54;99983.09;4359229;32;34982;-82
2021/01/02 08:07:54;;;;;;;19.67;12.18;;;;;;;4.92;68.87;99978.50;4350456;32;34196;-82
2021/01/02 08:10:22;;;;;;;21.90;12.82;;;;;;;5.05;68.21;99975.63;4360068;32;33221;-82
2021/01/02 08:12:51;;;;;;;24.50;13.48;;;;;;;5.33;67.50;99977.72;4349003;32;32793;-82
2021/01/02 08:15:35;;;;;;;19.25;11.88;;;;;;;5.34;67.57;99977.69;4358809;32;31784;-82
2021/01/02 08:18:10;;;;;;;18.92;12.45;;;;;;;5.32;67.44;99974.25;4348187;32;34357;-82
2021/01/02 08:20:38;;;;;;;25.42;13.23;;;;;;;5.20;68.33;99977.09;4362220;32;33223;-81
2021/01/02 08:23:10;;;;;;;;;;;;;;;4.89;68.99;99982.03;4350052;32;33824;-81
2021/01/02 08:25:37;;;;;;;29.17;13.57;;;;;;;4.14;71.67;99983.25;4352161;32;32769;-81
2021/01/02 08:28:05;;;;;;;28.35;15.80;;;;;;;4.32;71.22;100000.37;4343793;32;33983;-82
2021/01/02 08:30:33;;;;;;;21.40;12.23;;;;;;;4.80;69.67;99996.16;4358176;32;33720;-82
2021/01/02 08:33:01;;;;;;;21.08;12.63;;;;;;;4.84;69.08;100003.06;4350348;32;33611;-82
2021/01/02 08:35:36;;;;;;;21.62;11.90;;;;;;;5.12;68.33;100011.25;4355752;32;32918;-81
2021/01/02 08:38:08;;;;;;;21.95;12.30;;;;;;;5.22;67.52;100011.09;4350990;32;33357;-82
2021/01/02 08:40:37;;;;;;;20.45;12.18;;;;;;;5.06;67.94;100015.75;4371612;32;33849;-81
2021/01/02 08:43:05;;;;;;;17.12;11.00;;;;;;;4.56;69.72;100022.72;4363330;32;34429;-82
2021/01/02 08:45:39;;;;;;;19.90;11.25;;;;;;;4.56;69.96;100007.03;4360368;32;33833;-81
2021/01/02 08:48:09;;;;;;;19.15;11.15;;;;;;;4.61;69.74;100006.06;4362788;32;34171;-82
2021/01/02 08:50:39;;;;;;;20.05;11.88;;;;;;;4.54;70.68;100012.25;4373313;32;33206;-82
2021/01/02 08:53:27;;;;;;;22.52;12.23;;;;;;;4.81;69.94;100003.09;4362310;32;33594;-82
2021/01/02 08:55:54;;;;;;;21.50;11.77;;;;;;;4.21;71.37;100008.41;4361933;32;33880;-82
2021/01/02 08:58:33;;;;;;;20.10;12.73;;;;;;;4.79;69.54;100010.09;4349367;32;34349;-82
2021/01/02 09:01:00;;;;;;;20.77;12.20;;;;;;;5.11;68.50;100003.44;4327560;32;35163;-83
2021/01/02 09:03:28;;;;;;;18.33;11.43;;;;;;;5.04;68.85;99989.62;4336338;32;35123;-83
2021/01/02 09:05:55;;;;;;;18.52;10.35;;;;;;;4.90;69.37;99990.75;4357500;32;33769;-83
2021/01/02 09:08:22;;;;;;;17.20;9.95;;;;;;;5.28;67.69;99993.53;4340809;32;34544;-83
2021/01/02 09:10:58;;;;;;;18.92;11.02;;;;;;;5.03;68.12;99993.13;4344933;32;33840;-83
2021/01/02 09:13:27;;;;;;;18.20;11.45;;;;;;;4.81;69.33;99997.00;4350831;32;33637;-87
2021/01/02 09:16:42;;;;;;;18.55;11.23;;;;;;;5.41;67.75;99991.50;4357126;32;33798;-88
2021/01/02 09:19:23;;;;;;;21.60;11.07;;;;;;;5.35;67.36;99987.28;4372548;32;33871;-84
2021/01/02 09:21:51;;;;;;;21.87;11.63;;;;;;;5.38;67.35;99978.50;4335221;32;34268;-86
2021/01/02 09:24:22;;;;;;;16.23;9.70;;;;;;;5.19;67.64;99972.75;4352029;32;34426;-83
2021/01/02 09:26:50;;;;;;;16.85;9.55;;;;;;;5.33;67.62;99972.50;4354505;32;33692;-83
2021/01/02 09:29:18;;;;;;;17.50;9.70;;;;;;;5.29;67.36;99971.69;4365366;32;33459;-84
2021/01/02 09:31:46;;;;;;;17.12;9.23;;;;;;;5.65;66.44;99966.62;4363752;32;35189;-83
2021/01/02 09:34:13;;;;;;;17.70;9.27;;;;;;;5.56;66.22;99970.28;4359738;32;33586;-84
2021/01/02 09:36:40;;;;;;;17.30;10.30;;;;;;;5.90;65.84;99957.31;4351676;32;34633;-83
2021/01/02 09:39:08;;;;;;;15.50;10.00;;;;;;;5.45;67.18;99963.53;4339725;32;34078;-83
2021/01/02 09:41:36;;;;;;;18.27;9.85;;;;;;;5.53;67.42;99961.63;4354555;32;34084;-83
2021/01/02 09:44:03;;;;;;;16.67;10.05;;;;;;;5.73;66.89;99948.09;4377769;32;33737;-84
2021/01/02 09:46:49;;;;;;;20.45;10.82;;;;;;;5.94;65.86;99946.81;4354423;32;36013;-83
2021/01/02 09:49:17;;;;;;;17.25;9.77;;;;;;;6.06;65.31;99939.50;4358041;32;34579;-83
2021/01/02 09:51:44;;;;;;;16.40;9.52;;;;;;;6.54;63.80;99944.47;4363552;32;34393;-83
2021/01/02 09:54:11;;;;;;;16.90;10.68;;;;;;;6.40;63.95;99949.19;4360364;32;33314;-84
2021/01/02 09:56:45;;;;;;;18.12;10.25;;;;;;;6.05;65.42;99956.13;4353826;32;34310;-84
2021/01/02 09:59:15;;;;;;;18.40;11.63;;;;;;;6.31;64.72;99952.91;4356550;32;35020;-84
2021/01/02 10:01:42;;;;;;;18.42;9.93;;;;;;;6.23;65.01;99944.38;4349065;32;34184;-84
2021/01/02 10:04:10;;;;;;;15.45;9.77;;;;;;;5.74;66.10;99940.19;4343951;32;34058;-84
2021/01/02 10:06:44;;;;;;;17.60;10.10;;;;;;;5.92;65.75;99948.59;4376288;32;34399;-85
2021/01/02 10:09:11;;;;;;;16.27;9.85;;;;;;;5.57;66.64;99948.44;4363636;32;35537;-84
2021/01/02 10:11:43;;;;;;;17.33;9.88;;;;;;;5.51;66.83;99952.94;4345705;32;32637;-84
2021/01/02 10:14:10;;;;;;;16.53;10.67;;;;;;;5.67;66.34;99943.00;4353896;32;34321;-84
2021/01/02 10:16:38;;;;;;;20.23;11.98;;;;;;;5.49;67.26;99944.22;4351797;32;33252;-89
2021/01/02 10:19:09;;;;;;;21.48;10.45;;;;;;;5.70;67.19;99935.94;4349565;32;32343;-88
2021/01/02 10:21:39;;;;;;;16.37;9.68;;;;;;;6.04;65.89;99922.09;4353773;32;33442;-87
2021/01/02 10:24:08;;;;;;;18.17;9.95;;;;;;;6.03;65.95;99921.25;4377696;32;35425;-91
2021/01/02 10:26:38;;;;;;;19.58;11.52;;;;;;;6.09;65.72;99909.75;4368745;32;34401;-89
2021/01/02 10:29:06;;;;;;;21.40;10.60;;;;;;;5.99;65.82;99914.34;4373082;32;33499;-83
2021/01/02 10:31:33;;;;;;;16.40;10.48;;;;;;;5.85;66.71;99912.00;4358771;32;33356;-85
2021/01/02 10:34:00;;;;;;;15.70;9.43;;;;;;;6.03;66.02;99905.53;4354274;32;33305;-84
2021/01/02 10:36:28;;;;;;;18.30;9.73;;;;;;;5.75;66.10;99907.88;4363121;32;34436;-84
2021/01/02 10:38:59;;;;;;;17.60;9.30;;;;;;;6.20;64.85;99889.38;4357120;32;33784;-85
2021/01/02 10:41:26;;;;;;;18.00;9.83;;;;;;;5.89;65.90;99886.59;4366503;32;33167;-84
2021/01/02 10:43:54;;;;;;;18.48;9.75;;;;;;;5.89;66.15;99882.22;4351635;32;32545;-84
2021/01/02 10:46:21;;;;;;;17.73;9.68;;;;;;;6.28;65.36;99884.81;4349970;32;34713;-84
2021/01/02 10:48:49;;;;;;;14.98;8.93;;;;;;;6.65;64.22;99889.13;4351482;32;33519;-84
2021/01/02 10:51:19;;;;;;;17.90;9.02;;;;;;;5.90;65.32;99883.94;4363236;32;33942;-83
2021/01/02 10:53:47;;;;;;;16.92;9.48;;;;;;;6.35;64.59;99873.25;4364086;32;33011;-85
2021/01/02 10:56:17;;;;;;;17.40;8.80;;;;;;;6.58;63.92;99872.66;4352405;32;34613;-85
2021/01/02 10:58:45;;;;;;;12.43;8.05;;;;;;;6.35;64.33;99865.38;4364197;32;34670;-85
2021/01/02 11:01:14;;;;;;;15.55;8.55;;;;;;;6.51;63.56;99862.38;4343747;32;35488;-91
2021/01/02 11:03:42;;;;;;;15.20;9.13;;;;;;;6.02;65.54;99860.97;4352572;32;35016;-85
2021/01/02 11:06:13;;;;;;;14.55;8.25;;;;;;;6.38;65.16;99853.97;4363165;32;34822;-84
2021/01/02 11:08:42;;;;;;;14.50;8.88;;;;;;;6.45;63.75;99857.28;4348802;32;34485;-85
2021/01/02 11:11:20;;;;;;;13.75;7.80;;;;;;;6.33;64.60;99856.72;4359260;32;32958;-84
2021/01/02 11:13:47;;;;;;;14.93;8.98;;;;;;;6.65;64.00;99852.41;4358048;32;33355;-86
2021/01/02 11:16:15;;;;;;;13.35;8.52;;;;;;;6.31;64.47;99858.50;4337124;32;36043;-86
2021/01/02 11:18:43;;;;;;;12.95;8.18;;;;;;;6.31;64.61;99855.87;4363550;32;33809;-87
2021/01/02 11:21:10;;;;;;;15.20;8.48;;;;;;;6.41;64.59;99851.28;4361727;32;33753;-86
2021/01/02 11:23:38;;;;;;;12.85;8.73;;;;;;;6.41;64.79;99838.16;4363239;32;33721;-87
2021/01/02 11:26:09;;;;;;;15.13;8.95;;;;;;;6.70;64.16;99845.25;4350675;32;34613;-87
2021/01/02 11:28:36;;;;;;;14.70;8.63;;;;;;;6.57;64.24;99833.37;4341991;32;33213;-87
2021/01/02 11:31:06;;;;;;;14.80;8.15;;;;;;;6.94;63.53;99846.34;4361971;32;32457;-86
2021/01/02 11:33:33;;;;;;;14.77;8.13;;;;;;;6.48;64.00;99851.97;4338918;32;34837;-86
2021/01/02 11:36:01;;;;;;;16.98;9.07;;;;;;;6.51;64.19;99851.91;4348944;32;33605;-87
2021/01/02 11:38:28;;;;;;;11.40;7.80;;;;;;;6.97;63.09;99858.50;4356142;32;33305;-87
2021/01/02 11:40:56;;;;;;;13.73;8.65;;;;;;;6.96;62.69;99865.53;4350169;32;34168;-87
2021/01/02 11:43:23;;;;;;;14.05;8.32;;;;;;;6.74;63.57;99861.75;4358767;32;34392;-87
2021/01/02 11:45:51;;;;;;;15.85;8.00;;;;;;;6.64;63.67;99842.78;4350608;32;32989;-87
2021/01/02 11:48:19;;;;;;;16.45;8.75;;;;;;;6.90;62.99;99842.94;4357317;32;33890;-87
2021/01/02 11:50:46;;;;;;;11.75;7.22;;;;;;;7.09;62.67;99837.16;4350644;32;33084;-87